Time;durP1;ratioP1;P1;durP2;ratioP2;P2;SDS_P1;SDS_P2;PMS_P1;PMS_P2;Temp;Humidity;BMP_temperature;BMP_pressure;BME280_temperature;BME280_humidity;BME280_pressure;Samples;Min_cycle;Max_cycle;Signal;HPM_P1;HPM_P2
2023/08/27 00:01:53;;;;;;;6.60;4.97;;;14.30;99.90;;;;;;5085996;28;20319;-82
2023/08/27 00:04:19;;;;;;;6.00;4.17;;;14.30;99.90;;;;;;5092005;28;20283;-82
2023/08/27 00:06:46;;;;;;;5.30;4.17;;;14.20;99.90;;;;;;5108660;28;20230;-83
2023/08/27 00:09:13;;;;;;;5.93;4.03;;;14.20;99.90;;;;;;5099843;28;20220;-82
2023/08/27 00:11:39;;;;;;;4.90;3.77;;;14.20;99.90;;;;;;5094781;28;20228;-82
2023/08/27 00:14:06;;;;;;;4.63;3.73;;;14.20;99.90;;;;;;5093762;28;20310;-82
2023/08/27 00:16:33;;;;;;;5.73;4.40;;;14.10;99.90;;;;;;5108270;28;20277;-83
2023/08/27 00:19:03;;;;;;;5.20;3.90;;;14.00;99.90;;;;;;5102231;28;20227;-83
2023/08/27 00:21:29;;;;;;;4.40;4.00;;;14.00;99.90;;;;;;5093505;28;20262;-83
2023/08/27 00:23:56;;;;;;;4.17;3.77;;;14.00;99.90;;;;;;5088009;28;20284;-83
2023/08/27 00:26:23;;;;;;;5.67;4.93;;;14.00;99.90;;;;;;5107116;28;20815;-84
2023/08/27 00:28:50;;;;;;;6.57;4.23;;;13.90;99.90;;;;;;5088909;28;20566;-84
2023/08/27 00:31:17;;;;;;;6.07;4.60;;;13.90;99.90;;;;;;5083198;28;20224;-84
2023/08/27 00:33:44;;;;;;;5.40;4.30;;;13.90;99.90;;;;;;5088953;28;22248;-84
2023/08/27 00:36:12;;;;;;;5.63;3.97;;;13.80;99.90;;;;;;5083935;28;20327;-84
2023/08/27 00:38:39;;;;;;;5.67;4.07;;;13.80;99.90;;;;;;5076806;28;20821;-84
2023/08/27 00:41:06;;;;;;;6.80;4.87;;;13.70;99.90;;;;;;5081607;28;20663;-84
2023/08/27 00:43:33;;;;;;;5.60;4.73;;;13.70;99.90;;;;;;5085088;28;20219;-83
2023/08/27 00:46:02;;;;;;;7.17;4.47;;;13.60;99.90;;;;;;5079506;28;20839;-84
2023/08/27 00:48:29;;;;;;;4.57;4.10;;;13.60;99.90;;;;;;5093268;28;20225;-85
2023/08/27 00:50:57;;;;;;;5.80;4.40;;;13.60;99.90;;;;;;5077319;28;20255;-84
2023/08/27 00:53:25;;;;;;;5.33;4.20;;;13.50;99.90;;;;;;5078691;28;20234;-84
2023/08/27 00:55:52;;;;;;;5.17;4.33;;;13.50;99.90;;;;;;5085692;28;20223;-84
2023/08/27 00:58:19;;;;;;;6.57;4.60;;;13.40;99.90;;;;;;5089734;28;20219;-84
2023/08/27 01:00:46;;;;;;;4.80;4.30;;;13.40;99.90;;;;;;5082709;28;20221;-83
2023/08/27 01:03:13;;;;;;;4.80;4.10;;;13.30;99.90;;;;;;5085825;28;20356;-84
2023/08/27 01:05:40;;;;;;;4.50;4.10;;;13.30;99.90;;;;;;5078177;28;20895;-84
2023/08/27 01:08:15;;;;;;;4.03;3.63;;;13.30;99.90;;;;;;5081972;28;20223;-80
2023/08/27 01:10:54;;;;;;;5.40;4.20;;;13.20;99.90;;;;;;5082921;28;20598;-81
2023/08/27 01:13:37;;;;;;;5.67;4.10;;;13.20;99.90;;;;;;5090846;28;20211;-82
2023/08/27 01:16:06;;;;;;;5.60;3.70;;;13.10;99.90;;;;;;5080636;28;20235;-82
2023/08/27 01:18:35;;;;;;;5.57;3.80;;;13.10;99.90;;;;;;5079282;28;20230;-82
2023/08/27 01:21:19;;;;;;;4.83;4.30;;;13.10;99.90;;;;;;5084113;28;20248;-82
2023/08/27 01:23:46;;;;;;;5.30;3.87;;;13.10;99.90;;;;;;5082876;28;20299;-82
2023/08/27 01:26:17;;;;;;;6.80;3.97;;;13.10;99.90;;;;;;5085527;28;20305;-81
2023/08/27 01:28:48;;;;;;;4.73;3.90;;;13.10;99.90;;;;;;5074277;28;20217;-83
2023/08/27 01:31:24;;;;;;;4.10;3.70;;;13.10;99.90;;;;;;5089359;28;20218;-83
2023/08/27 01:33:56;;;;;;;4.57;3.90;;;13.10;99.90;;;;;;5083616;28;20228;-83
2023/08/27 01:36:25;;;;;;;4.40;4.00;;;13.10;99.90;;;;;;5084798;28;20229;-82
2023/08/27 01:38:52;;;;;;;4.87;3.63;;;13.10;99.90;;;;;;5089967;28;20738;-83
2023/08/27 01:41:19;;;;;;;5.00;3.43;;;13.20;99.90;;;;;;5090998;28;20232;-82
2023/08/27 01:43:46;;;;;;;4.03;3.57;;;13.20;99.90;;;;;;5087286;28;20702;-83
2023/08/27 01:46:13;;;;;;;5.20;3.67;;;13.30;99.90;;;;;;5086062;28;20225;-81
2023/08/27 01:48:39;;;;;;;3.90;3.40;;;13.30;99.90;;;;;;5090173;28;20245;-82
2023/08/27 01:51:06;;;;;;;6.63;3.80;;;13.30;99.90;;;;;;5078651;28;20293;-82
2023/08/27 01:53:34;;;;;;;4.83;3.47;;;13.30;99.90;;;;;;5086385;28;20283;-82
2023/08/27 01:56:01;;;;;;;4.43;3.60;;;13.30;99.90;;;;;;5076759;28;20225;-83
2023/08/27 01:58:28;;;;;;;3.67;3.30;;;13.30;99.90;;;;;;5084401;28;20277;-82
2023/08/27 02:00:55;;;;;;;4.43;3.57;;;13.30;99.90;;;;;;5080835;28;20322;-83
2023/08/27 02:03:22;;;;;;;4.40;3.67;;;13.30;99.90;;;;;;5090311;28;20250;-82
2023/08/27 02:05:49;;;;;;;4.67;3.60;;;13.30;99.90;;;;;;5107593;28;20242;-83
2023/08/27 02:08:15;;;;;;;4.00;3.50;;;13.30;99.90;;;;;;5089930;28;20630;-81
2023/08/27 02:10:44;;;;;;;5.43;3.70;;;13.30;99.90;;;;;;5095613;22;20238;-87
2023/08/27 02:13:11;;;;;;;5.23;3.57;;;13.30;99.90;;;;;;5067254;28;20240;-88
2023/08/27 02:15:38;;;;;;;5.03;3.70;;;13.20;99.90;;;;;;5067495;28;20221;-87
2023/08/27 02:18:05;;;;;;;5.43;3.73;;;13.20;99.90;;;;;;5064916;28;20309;-85
2023/08/27 02:20:32;;;;;;;4.77;3.90;;;13.20;99.90;;;;;;5079445;28;20331;-87
2023/08/27 02:22:59;;;;;;;4.27;3.77;;;13.10;99.90;;;;;;5077377;28;20222;-86
2023/08/27 02:25:27;;;;;;;4.20;3.80;;;13.10;99.90;;;;;;5085564;28;20237;-87
2023/08/27 02:27:55;;;;;;;4.63;3.40;;;13.10;99.90;;;;;;5082340;28;20277;-87
2023/08/27 02:30:22;;;;;;;4.73;3.17;;;13.00;99.90;;;;;;5079780;28;20230;-86
2023/08/27 02:32:49;;;;;;;5.03;3.50;;;13.00;99.90;;;;;;5085530;28;20252;-87
2023/08/27 02:35:16;;;;;;;5.57;4.00;;;13.00;99.90;;;;;;5083699;28;20639;-86
2023/08/27 02:37:43;;;;;;;5.90;3.60;;;12.90;99.90;;;;;;5082299;28;20224;-86
2023/08/27 02:40:12;;;;;;;4.23;3.83;;;12.90;99.90;;;;;;5080590;28;20228;-87
2023/08/27 02:42:39;;;;;;;5.20;3.73;;;12.80;99.90;;;;;;5080195;28;20224;-86
2023/08/27 02:45:09;;;;;;;4.60;4.20;;;12.80;99.90;;;;;;5071321;28;20219;-86
2023/08/27 02:47:36;;;;;;;4.20;3.80;;;12.70;99.90;;;;;;5082480;28;20279;-86
2023/08/27 02:50:03;;;;;;;6.83;4.10;;;12.70;99.90;;;;;;5082388;28;20333;-87
2023/08/27 02:52:31;;;;;;;4.03;3.63;;;12.60;99.90;;;;;;5079979;28;20220;-87
2023/08/27 02:54:58;;;;;;;3.77;3.27;;;12.60;99.90;;;;;;5081227;28;20246;-86
2023/08/27 02:57:25;;;;;;;5.10;3.97;;;12.60;99.90;;;;;;5077575;28;20306;-86
2023/08/27 02:59:51;;;;;;;4.23;3.43;;;12.50;99.90;;;;;;5080517;28;20248;-85
2023/08/27 03:02:19;;;;;;;5.37;3.47;;;12.50;99.90;;;;;;5081790;28;20624;-87
2023/08/27 03:04:46;;;;;;;3.47;3.10;;;12.50;99.90;;;;;;5075874;28;20227;-86
2023/08/27 03:07:13;;;;;;;4.50;3.30;;;12.50;99.90;;;;;;5081058;28;20207;-86
2023/08/27 03:09:40;;;;;;;4.40;3.47;;;12.50;99.90;;;;;;5085437;28;20238;-87
2023/08/27 03:12:07;;;;;;;5.33;3.70;;;12.50;99.90;;;;;;5083939;28;20220;-86
2023/08/27 03:14:34;;;;;;;3.90;3.50;;;12.40;99.90;;;;;;5081250;28;20310;-86
2023/08/27 03:17:01;;;;;;;4.50;3.13;;;12.40;99.90;;;;;;5079044;28;20837;-87
2023/08/27 03:19:29;;;;;;;3.83;3.47;;;12.40;99.90;;;;;;5080523;28;20230;-86
2023/08/27 03:21:57;;;;;;;4.90;3.53;;;12.30;99.90;;;;;;5077830;28;20223;-85
2023/08/27 03:24:24;;;;;;;4.20;3.10;;;12.30;99.90;;;;;;5080189;28;20330;-86
2023/08/27 03:26:51;;;;;;;3.53;3.20;;;12.30;99.90;;;;;;5078837;28;20262;-88
2023/08/27 03:29:18;;;;;;;4.30;3.60;;;12.30;99.90;;;;;;5074905;28;20296;-88
2023/08/27 03:31:45;;;;;;;3.60;3.23;;;12.30;99.90;;;;;;5078432;28;20518;-88
2023/08/27 03:34:12;;;;;;;3.93;3.53;;;12.20;99.90;;;;;;5074458;28;20231;-88
2023/08/27 03:36:40;;;;;;;7.27;3.40;;;12.20;99.90;;;;;;5080264;28;20734;-87
2023/08/27 03:39:08;;;;;;;3.93;3.40;;;12.20;99.90;;;;;;5077632;28;20223;-87
2023/08/27 03:41:35;;;;;;;4.40;3.50;;;12.20;99.90;;;;;;5081340;28;20717;-88
2023/08/27 03:44:02;;;;;;;4.07;3.20;;;12.10;99.90;;;;;;5080038;28;20633;-87
2023/08/27 03:46:29;;;;;;;5.10;3.57;;;12.10;99.90;;;;;;5080194;28;20217;-88
2023/08/27 03:49:00;;;;;;;3.47;3.13;;;12.10;99.90;;;;;;5082498;28;20304;-89
2023/08/27 03:51:28;;;;;;;4.57;3.60;;;12.20;99.90;;;;;;5083129;28;20218;-88
2023/08/27 03:53:56;;;;;;;5.43;3.40;;;12.10;99.90;;;;;;5070272;28;20241;-89
2023/08/27 03:56:23;;;;;;;6.37;3.40;;;12.20;99.90;;;;;;5074662;28;20300;-89
2023/08/27 03:58:50;;;;;;;3.90;3.43;;;12.20;99.90;;;;;;5076630;28;20221;-88
2023/08/27 04:01:17;;;;;;;4.90;3.60;;;12.20;99.90;;;;;;5077698;28;20307;-87
2023/08/27 04:03:44;;;;;;;4.00;3.20;;;12.20;99.90;;;;;;5084252;28;20765;-88
2023/08/27 04:06:11;;;;;;;6.67;3.83;;;12.20;99.90;;;;;;5080767;28;20307;-87
2023/08/27 04:08:38;;;;;;;4.80;3.67;;;12.20;99.90;;;;;;5079226;28;20219;-86
2023/08/27 04:11:06;;;;;;;3.93;3.50;;;12.20;99.90;;;;;;5081795;28;20214;-87
2023/08/27 04:13:33;;;;;;;3.93;3.57;;;12.20;99.90;;;;;;5081861;28;20211;-88
2023/08/27 04:16:00;;;;;;;3.80;3.50;;;12.20;99.90;;;;;;5076617;28;20547;-88
2023/08/27 04:18:27;;;;;;;5.40;4.17;;;12.20;99.90;;;;;;5080320;28;20226;-88
2023/08/27 04:20:55;;;;;;;4.03;3.50;;;12.20;99.90;;;;;;5086118;28;20231;-87
2023/08/27 04:23:22;;;;;;;5.47;3.60;;;12.20;99.90;;;;;;5089444;28;20224;-87
2023/08/27 04:25:49;;;;;;;6.73;3.53;;;12.20;99.90;;;;;;5083922;28;20704;-87
2023/08/27 04:28:17;;;;;;;4.93;3.57;;;12.20;99.90;;;;;;5079596;28;20304;-87
2023/08/27 04:30:47;;;;;;;4.17;3.77;;;12.10;99.90;;;;;;5071396;28;20226;-86
2023/08/27 04:33:14;;;;;;;5.00;3.40;;;12.10;99.90;;;;;;5081907;28;20214;-87
2023/08/27 04:35:40;;;;;;;5.50;3.70;;;12.10;99.90;;;;;;5086674;28;20220;-87
2023/08/27 04:38:08;;;;;;;4.17;3.77;;;12.10;99.90;;;;;;5079895;28;20313;-86
2023/08/27 04:40:36;;;;;;;5.63;3.63;;;12.10;99.90;;;;;;5083416;28;20738;-87
2023/08/27 04:43:03;;;;;;;4.33;3.67;;;12.10;99.90;;;;;;5091013;28;20400;-87
2023/08/27 04:45:31;;;;;;;5.30;3.90;;;12.10;99.90;;;;;;5086621;28;20565;-89
2023/08/27 04:47:58;;;;;;;3.80;3.43;;;12.10;99.90;;;;;;5082717;28;20771;-86
2023/08/27 04:50:24;;;;;;;4.60;3.97;;;12.10;99.90;;;;;;5078699;28;20340;-86
2023/08/27 04:52:51;;;;;;;4.17;3.80;;;12.00;99.90;;;;;;5078006;28;20242;-86
2023/08/27 04:55:19;;;;;;;4.37;3.90;;;12.10;99.90;;;;;;5081759;28;20231;-87
2023/08/27 04:57:47;;;;;;;6.33;4.00;;;12.00;99.90;;;;;;5076235;28;20719;-86
2023/08/27 05:00:20;;;;;;;5.97;3.50;;;12.00;99.90;;;;;;5075084;28;20218;-87
2023/08/27 05:02:48;;;;;;;3.87;3.43;;;12.00;99.90;;;;;;5075955;28;20231;-86
2023/08/27 05:05:15;;;;;;;4.73;4.03;;;12.00;99.90;;;;;;5088717;28;20216;-91
2023/08/27 05:07:42;;;;;;;5.23;4.00;;;12.00;99.90;;;;;;5093040;28;20770;-91
2023/08/27 05:10:10;;;;;;;4.73;4.33;;;12.00;99.90;;;;;;5093281;28;20758;-90
2023/08/27 05:12:37;;;;;;;5.67;3.40;;;12.10;99.90;;;;;;5093255;28;20242;-92
2023/08/27 05:15:20;;;;;;;4.53;3.63;;;12.10;99.90;;;;;;5086222;27;20584;-96
2023/08/27 05:17:56;;;;;;;4.00;3.60;;;12.10;99.90;;;;;;5099700;28;20235;-91
2023/08/27 05:20:23;;;;;;;5.47;4.50;;;12.10;99.90;;;;;;5099349;28;20226;-91
2023/08/27 05:22:50;;;;;;;5.60;3.73;;;12.10;99.90;;;;;;5103992;28;20207;-92
2023/08/27 05:25:19;;;;;;;4.73;4.20;;;12.10;99.90;;;;;;5102427;28;20203;-94
2023/08/27 05:27:48;;;;;;;5.23;4.00;;;12.20;99.90;;;;;;5100323;28;20224;-95
2023/08/27 05:30:15;;;;;;;4.70;4.20;;;12.30;99.90;;;;;;5104089;28;20363;-93
2023/08/27 05:32:43;;;;;;;4.50;3.80;;;12.30;99.90;;;;;;5108727;28;20247;-95
2023/08/27 05:35:11;;;;;;;4.33;4.00;;;12.40;99.90;;;;;;5102867;28;20226;-93
2023/08/27 05:37:38;;;;;;;5.03;3.73;;;12.50;99.90;;;;;;5099337;28;20206;-93
2023/08/27 05:40:08;;;;;;;5.73;4.10;;;12.60;99.90;;;;;;5101425;28;20222;-93
2023/08/27 05:42:35;;;;;;;4.50;4.10;;;12.60;99.90;;;;;;5104069;28;20311;-92
2023/08/27 05:45:03;;;;;;;8.67;3.97;;;12.70;99.90;;;;;;5092781;28;20249;-91
2023/08/27 05:47:29;;;;;;;6.20;4.23;;;12.70;99.90;;;;;;5088604;28;20221;-90
2023/08/27 05:49:56;;;;;;;4.43;3.87;;;12.80;99.90;;;;;;5090642;28;20222;-91
2023/08/27 05:52:24;;;;;;;4.60;4.17;;;12.90;99.90;;;;;;5088404;28;20230;-91
2023/08/27 05:54:51;;;;;;;5.27;4.43;;;12.90;99.90;;;;;;5100349;28;20449;-91
2023/08/27 05:57:18;;;;;;;5.17;4.67;;;13.00;99.90;;;;;;5081530;28;20224;-90
2023/08/27 05:59:45;;;;;;;4.63;3.93;;;13.10;99.90;;;;;;5082526;28;20264;-89
2023/08/27 06:02:14;;;;;;;5.00;4.50;;;13.10;99.90;;;;;;5067769;28;20724;-89
2023/08/27 06:04:42;;;;;;;5.20;4.47;;;13.20;99.90;;;;;;5078457;28;20217;-90
2023/08/27 06:07:09;;;;;;;6.13;4.70;;;13.20;99.90;;;;;;5080528;28;20232;-90
2023/08/27 06:09:38;;;;;;;5.60;3.80;;;13.30;99.90;;;;;;5079370;28;20289;-89
2023/08/27 06:12:06;;;;;;;4.60;4.20;;;13.40;99.90;;;;;;5078956;28;20580;-91
2023/08/27 06:14:32;;;;;;;6.17;4.30;;;13.50;99.90;;;;;;5079632;28;20228;-90
2023/08/27 06:16:59;;;;;;;4.57;4.13;;;13.50;99.90;;;;;;5076303;28;20254;-89
2023/08/27 06:19:27;;;;;;;6.23;4.37;;;13.60;99.90;;;;;;5080369;28;20304;-89
2023/08/27 06:21:54;;;;;;;5.57;4.37;;;13.70;99.90;;;;;;5075543;28;20226;-89
2023/08/27 06:24:21;;;;;;;4.70;4.20;;;13.80;99.90;;;;;;5082401;28;20217;-86
2023/08/27 06:26:49;;;;;;;4.73;4.00;;;13.80;99.90;;;;;;5081893;28;20216;-85
2023/08/27 06:29:16;;;;;;;4.57;3.87;;;13.90;99.90;;;;;;5078785;28;20731;-85
2023/08/27 06:31:43;;;;;;;5.03;4.53;;;13.90;99.90;;;;;;5080909;28;20278;-85
2023/08/27 06:34:10;;;;;;;5.00;4.50;;;14.00;99.90;;;;;;5076494;28;20216;-85
2023/08/27 06:36:37;;;;;;;5.53;4.30;;;14.10;99.90;;;;;;5077368;28;20232;-86
2023/08/27 06:39:04;;;;;;;4.50;4.10;;;14.20;99.90;;;;;;5079106;28;20225;-84
2023/08/27 06:41:31;;;;;;;4.53;4.07;;;14.30;99.90;;;;;;5081305;28;20224;-85
2023/08/27 06:44:02;;;;;;;5.13;4.57;;;14.40;99.90;;;;;;5077568;28;20321;-84
2023/08/27 06:46:30;;;;;;;4.40;4.00;;;14.40;99.90;;;;;;5068885;28;20221;-89
2023/08/27 06:48:57;;;;;;;4.37;3.70;;;14.60;99.90;;;;;;5083875;28;20763;-85
2023/08/27 06:51:23;;;;;;;5.03;3.80;;;14.60;99.90;;;;;;5082116;28;20401;-86
2023/08/27 06:53:50;;;;;;;4.37;3.50;;;14.80;99.90;;;;;;5081574;28;20236;-85
2023/08/27 06:56:18;;;;;;;5.20;3.60;;;14.90;99.90;;;;;;5079273;28;20272;-86
2023/08/27 06:58:45;;;;;;;5.60;3.67;;;14.90;99.90;;;;;;5081753;28;20217;-89
2023/08/27 07:01:13;;;;;;;4.57;3.40;;;15.00;99.90;;;;;;5081302;28;20288;-89
2023/08/27 07:03:40;;;;;;;3.97;3.57;;;15.00;99.90;;;;;;5074309;28;20844;-90
2023/08/27 07:06:06;;;;;;;4.43;3.23;;;15.00;99.90;;;;;;5083956;28;20312;-89
2023/08/27 07:08:33;;;;;;;3.60;3.30;;;15.00;99.90;;;;;;5083847;28;20728;-88
2023/08/27 07:11:00;;;;;;;4.53;3.60;;;15.00;99.90;;;;;;5080414;28;20809;-88
2023/08/27 07:13:26;;;;;;;3.70;3.40;;;14.90;99.90;;;;;;5076590;28;20222;-89
2023/08/27 07:15:57;;;;;;;4.87;3.50;;;14.90;99.90;;;;;;5082591;28;20665;-90
2023/08/27 07:18:27;;;;;;;4.97;3.87;;;14.90;99.90;;;;;;5078641;28;20249;-88
2023/08/27 07:20:54;;;;;;;4.67;4.27;;;14.80;99.90;;;;;;5077584;28;20304;-89
2023/08/27 07:23:21;;;;;;;4.13;3.73;;;14.80;99.90;;;;;;5092275;28;20257;-92
2023/08/27 07:25:47;;;;;;;4.33;3.70;;;14.80;99.90;;;;;;5088542;28;20220;-92
2023/08/27 07:28:14;;;;;;;5.27;3.60;;;14.80;99.90;;;;;;5076678;28;20218;-93
2023/08/27 07:30:41;;;;;;;5.10;3.40;;;14.80;99.90;;;;;;5083781;28;20252;-93
2023/08/27 07:33:11;;;;;;;3.93;3.53;;;14.90;99.90;;;;;;5099266;28;20288;-92
2023/08/27 07:35:39;;;;;;;5.03;3.67;;;14.90;99.90;;;;;;5099335;28;20233;-93
2023/08/27 07:38:07;;;;;;;4.47;3.57;;;14.90;99.90;;;;;;5090904;28;20224;-93
2023/08/27 07:40:36;;;;;;;3.50;3.20;;;15.00;99.90;;;;;;5085136;28;20341;-93
2023/08/27 07:43:03;;;;;;;3.97;3.47;;;15.10;99.90;;;;;;5070429;28;20320;-93
2023/08/27 07:45:30;;;;;;;5.20;3.47;;;15.20;99.90;;;;;;5079754;28;20244;-91
2023/08/27 07:47:57;;;;;;;4.70;3.30;;;15.40;99.90;;;;;;5091589;28;20225;-92
2023/08/27 07:50:25;;;;;;;3.80;2.83;;;15.70;99.90;;;;;;5087652;28;20264;-92
2023/08/27 07:52:53;;;;;;;2.93;2.63;;;16.10;99.90;;;;;;5088636;28;20223;-91
2023/08/27 07:55:21;;;;;;;3.37;2.67;;;16.40;99.90;;;;;;5091207;28;20245;-96
2023/08/27 07:57:49;;;;;;;2.70;2.30;;;16.90;99.90;;;;;;5085186;28;20223;-93
2023/08/27 08:00:16;;;;;;;3.97;2.60;;;17.30;99.90;;;;;;5084022;28;20222;-93
2023/08/27 08:02:46;;;;;;;3.70;2.40;;;17.80;99.90;;;;;;5089830;28;20704;-94
2023/08/27 08:05:13;;;;;;;2.65;2.20;;;18.10;99.90;;;;;;5084920;28;20248;-93
2023/08/27 08:07:40;;;;;;;3.22;2.45;;;18.40;99.90;;;;;;5093123;28;20242;-93
2023/08/27 08:10:08;;;;;;;4.47;2.60;;;18.60;99.90;;;;;;5089306;28;20241;-93
2023/08/27 08:12:35;;;;;;;4.00;2.20;;;18.80;99.90;;;;;;5082085;28;20215;-94
2023/08/27 08:15:02;;;;;;;2.60;2.40;;;18.90;99.90;;;;;;5084634;28;20688;-94
2023/08/27 08:17:32;;;;;;;4.10;2.22;;;19.10;99.90;;;;;;5084709;28;20271;-93
2023/08/27 08:19:58;;;;;;;2.80;2.20;;;19.20;99.90;;;;;;5088953;28;20231;-94
2023/08/27 08:22:25;;;;;;;2.78;2.40;;;19.30;99.90;;;;;;5088703;28;20254;-93
2023/08/27 08:24:52;;;;;;;4.88;2.35;;;19.60;99.90;;;;;;5088231;28;20427;-93
2023/08/27 08:27:20;;;;;;;3.15;2.30;;;20.00;99.90;;;;;;5088573;28;20305;-93
2023/08/27 08:29:47;;;;;;;3.08;1.85;;;20.30;99.90;;;;;;5081805;28;20440;-93
2023/08/27 08:32:13;;;;;;;3.03;2.30;;;20.60;99.90;;;;;;5089722;28;20230;-92
2023/08/27 08:34:41;;;;;;;2.85;2.00;;;20.70;99.90;;;;;;5090742;28;20229;-94
2023/08/27 08:37:08;;;;;;;3.25;2.20;;;20.80;99.90;;;;;;5084749;28;20215;-93
2023/08/27 08:39:35;;;;;;;4.53;2.13;;;20.80;99.90;;;;;;5081068;28;20450;-93
2023/08/27 08:42:10;;;;;;;2.72;2.50;;;20.80;99.90;;;;;;5081506;28;20302;-94
2023/08/27 08:44:49;;;;;;;3.33;2.20;;;20.80;99.90;;;;;;5082749;28;20245;-93
2023/08/27 08:47:18;;;;;;;4.50;2.25;;;20.90;99.90;;;;;;5084409;28;20230;-94
2023/08/27 08:49:45;;;;;;;4.60;2.45;;;20.90;99.90;;;;;;5086616;28;20223;-92
2023/08/27 08:52:17;;;;;;;3.47;2.13;;;21.00;99.90;;;;;;5080957;28;20215;-94
2023/08/27 08:54:46;;;;;;;3.40;1.95;;;21.20;99.90;;;;;;5077221;28;20214;-94
2023/08/27 08:57:17;;;;;;;2.63;2.15;;;21.30;99.90;;;;;;5083580;28;20394;-94
2023/08/27 08:59:46;;;;;;;2.70;2.47;;;21.60;99.90;;;;;;5081050;28;20298;-94
2023/08/27 09:02:14;;;;;;;3.60;2.30;;;22.00;99.90;;;;;;5083588;28;20313;-94
2023/08/27 09:04:42;;;;;;;3.47;2.70;;;22.40;99.90;;;;;;5087454;28;20210;-93
2023/08/27 09:07:10;;;;;;;3.47;2.17;;;22.90;99.90;;;;;;5084433;28;20608;-92
2023/08/27 09:09:39;;;;;;;3.53;2.30;;;23.20;99.90;;;;;;5080971;28;20253;-94
2023/08/27 09:12:08;;;;;;;3.08;2.42;;;23.40;99.70;;;;;;5085361;28;20286;-94
2023/08/27 09:14:37;;;;;;;3.97;2.38;;;23.50;99.40;;;;;;5082738;28;20242;-93
2023/08/27 09:17:07;;;;;;;3.35;2.28;;;23.50;99.60;;;;;;5079774;28;20226;-94
2023/08/27 09:19:35;;;;;;;2.83;2.10;;;23.40;99.90;;;;;;5085645;28;20898;-93
2023/08/27 09:22:02;;;;;;;2.97;2.15;;;23.40;99.30;;;;;;5078849;28;20220;-93
2023/08/27 09:24:28;;;;;;;3.42;2.30;;;23.30;98.20;;;;;;5084102;28;20257;-94
2023/08/27 09:26:55;;;;;;;3.30;2.40;;;23.30;98.80;;;;;;5084845;28;20597;-94
2023/08/27 09:29:23;;;;;;;4.00;2.25;;;23.10;98.00;;;;;;5087348;28;20247;-93
2023/08/27 09:31:51;;;;;;;4.32;2.67;;;23.10;99.00;;;;;;5087170;28;20219;-93
2023/08/27 09:34:20;;;;;;;2.85;2.22;;;23.10;99.00;;;;;;5085334;28;20755;-93
2023/08/27 09:36:47;;;;;;;3.00;1.70;;;23.10;99.60;;;;;;5078475;28;20732;-93
2023/08/27 09:39:14;;;;;;;2.42;2.03;;;23.10;99.90;;;;;;5080465;28;20258;-94
2023/08/27 09:41:45;;;;;;;2.55;2.10;;;23.20;99.60;;;;;;5089904;28;20697;-94
2023/08/27 09:44:12;;;;;;;3.55;2.25;;;23.40;99.00;;;;;;5085182;28;20878;-94
2023/08/27 09:46:40;;;;;;;2.83;2.10;;;23.50;98.60;;;;;;5078548;28;20220;-93
2023/08/27 09:49:08;;;;;;;3.55;2.55;;;23.50;98.40;;;;;;5080732;28;20230;-93
2023/08/27 09:51:37;;;;;;;2.50;2.30;;;23.60;97.30;;;;;;5073860;28;20308;-93
2023/08/27 09:54:14;;;;;;;2.85;2.10;;;23.50;97.20;;;;;;5083610;28;20278;-93
2023/08/27 09:56:45;;;;;;;4.05;2.38;;;23.40;97.10;;;;;;5083110;28;20218;-94
2023/08/27 09:59:15;;;;;;;5.45;2.20;;;23.40;97.50;;;;;;5081245;28;20222;-94
2023/08/27 10:01:46;;;;;;;2.80;2.17;;;23.40;98.20;;;;;;5082831;28;20617;-93
2023/08/27 10:04:13;;;;;;;2.97;1.80;;;23.60;99.10;;;;;;5083450;28;20227;-94
2023/08/27 10:06:41;;;;;;;3.55;2.30;;;23.70;99.00;;;;;;5086277;28;20218;-93
2023/08/27 10:09:08;;;;;;;3.40;2.00;;;24.00;98.90;;;;;;5079933;28;20294;-94
2023/08/27 10:11:35;;;;;;;4.22;2.13;;;24.20;98.30;;;;;;5085241;28;20229;-93
2023/08/27 10:14:03;;;;;;;2.72;2.00;;;24.30;97.30;;;;;;5079229;28;20214;-94
2023/08/27 10:16:31;;;;;;;4.05;1.90;;;24.40;97.30;;;;;;5087118;28;20226;-93
2023/08/27 10:19:01;;;;;;;2.38;1.70;;;24.40;96.30;;;;;;5085950;28;20699;-94
2023/08/27 10:21:28;;;;;;;2.42;1.70;;;24.30;96.00;;;;;;5073300;28;20499;-94
2023/08/27 10:23:59;;;;;;;3.88;1.83;;;24.30;96.90;;;;;;5085298;28;20230;-94
2023/08/27 10:26:25;;;;;;;1.83;1.55;;;24.20;95.90;;;;;;5085100;28;20226;-94
2023/08/27 10:28:53;;;;;;;2.75;1.60;;;24.10;96.90;;;;;;5086345;28;20277;-92
2023/08/27 10:31:19;;;;;;;2.35;1.75;;;24.10;96.30;;;;;;5086557;28;20369;-94
2023/08/27 10:33:46;;;;;;;2.13;1.60;;;24.10;96.90;;;;;;5085948;28;20663;-93
2023/08/27 10:36:18;;;;;;;2.20;1.70;;;24.10;96.60;;;;;;5084808;28;20233;-93
2023/08/27 10:38:47;;;;;;;1.88;1.50;;;24.20;97.00;;;;;;5080934;28;20225;-93
2023/08/27 10:41:18;;;;;;;3.05;1.73;;;24.20;96.40;;;;;;5087850;28;20273;-93
2023/08/27 10:43:45;;;;;;;2.83;1.80;;;24.20;95.70;;;;;;5099435;28;20223;-94
2023/08/27 10:46:15;;;;;;;2.33;1.60;;;24.10;95.80;;;;;;5086252;28;20233;-94
2023/08/27 10:48:48;;;;;;;2.40;1.60;;;24.10;96.70;;;;;;5084888;28;20225;-93
2023/08/27 10:51:17;;;;;;;2.25;1.50;;;24.10;96.20;;;;;;5083174;28;20272;-93
2023/08/27 10:53:56;;;;;;;3.47;1.42;;;24.00;96.60;;;;;;5075445;28;20277;-93
2023/08/27 10:56:47;;;;;;;3.10;1.60;;;24.00;96.50;;;;;;5077632;28;20219;-94
2023/08/27 10:59:28;;;;;;;3.22;2.00;;;24.00;95.20;;;;;;5083413;28;20225;-93
2023/08/27 11:02:07;;;;;;;2.63;1.67;;;23.90;95.30;;;;;;5087235;28;20876;-93
2023/08/27 11:04:35;;;;;;;2.38;1.77;;;23.80;95.40;;;;;;5098041;28;20223;-93
2023/08/27 11:07:14;;;;;;;2.63;1.83;;;23.80;96.10;;;;;;5091596;28;20211;-93
2023/08/27 11:09:48;;;;;;;2.28;1.35;;;23.70;97.10;;;;;;5078730;28;20235;-94
2023/08/27 11:12:24;;;;;;;4.07;1.50;;;23.60;96.50;;;;;;5085908;28;20246;-93
2023/08/27 11:14:51;;;;;;;3.63;1.52;;;23.60;95.70;;;;;;5078709;28;20222;-92
2023/08/27 11:17:24;;;;;;;3.33;1.70;;;23.50;95.60;;;;;;5086402;28;20215;-93
2023/08/27 11:19:54;;;;;;;3.00;1.60;;;23.50;95.40;;;;;;5078282;28;20720;-94
2023/08/27 11:22:22;;;;;;;2.67;1.80;;;23.40;95.40;;;;;;5084881;28;20230;-94
2023/08/27 11:24:52;;;;;;;2.25;1.40;;;23.40;96.30;;;;;;5078731;28;20283;-94
2023/08/27 11:27:20;;;;;;;1.90;1.40;;;23.40;96.30;;;;;;5078197;28;20530;-94
2023/08/27 11:29:50;;;;;;;3.65;1.55;;;23.40;96.20;;;;;;5087798;28;20273;-93
2023/08/27 11:32:17;;;;;;;2.90;1.70;;;23.40;96.10;;;;;;5084519;28;20544;-93
2023/08/27 11:34:45;;;;;;;1.38;1.23;;;23.40;96.50;;;;;;5078627;28;20211;-93
2023/08/27 11:37:13;;;;;;;2.17;1.40;;;23.40;96.10;;;;;;5080396;28;20220;-93
2023/08/27 11:39:41;;;;;;;1.60;1.50;;;23.40;97.10;;;;;;5085658;28;20223;-94
2023/08/27 11:42:12;;;;;;;4.47;1.70;;;23.40;96.60;;;;;;5075899;28;20249;-93
2023/08/27 11:44:54;;;;;;;3.80;1.60;;;23.40;96.20;;;;;;5074354;28;20247;-92
2023/08/27 11:47:22;;;;;;;4.80;1.63;;;23.30;96.20;;;;;;5085226;28;20229;-94
2023/08/27 11:49:50;;;;;;;2.63;1.65;;;23.20;96.10;;;;;;5081968;28;20231;-93
2023/08/27 11:52:17;;;;;;;2.22;1.52;;;23.20;96.10;;;;;;5082756;28;20215;-93
2023/08/27 11:54:46;;;;;;;2.88;1.70;;;23.00;95.90;;;;;;5080778;28;20233;-93
2023/08/27 11:57:13;;;;;;;2.25;1.42;;;22.90;96.10;;;;;;5087334;28;20297;-94
2023/08/27 11:59:41;;;;;;;1.70;1.40;;;22.80;96.40;;;;;;5080112;28;20227;-93
2023/08/27 12:02:11;;;;;;;2.45;1.48;;;22.70;96.70;;;;;;5077244;28;20219;-94
2023/08/27 12:04:39;;;;;;;2.40;1.67;;;22.60;96.80;;;;;;5080752;28;20235;-92
2023/08/27 12:07:06;;;;;;;3.17;1.52;;;22.50;96.90;;;;;;5092190;28;20219;-93
2023/08/27 12:09:34;;;;;;;2.30;1.70;;;22.50;96.90;;;;;;5083255;28;20242;-92
2023/08/27 12:12:02;;;;;;;4.55;1.60;;;22.30;97.30;;;;;;5085892;28;20223;-93
2023/08/27 12:14:29;;;;;;;3.40;1.67;;;22.20;97.40;;;;;;5094847;28;20242;-93
2023/08/27 12:17:07;;;;;;;6.35;2.33;;;22.10;98.40;;;;;;5083330;28;20199;-96
2023/08/27 12:19:36;;;;;;;18.77;5.45;;;22.00;99.90;;;;;;5096665;23;20296;-85
2023/08/27 12:22:03;;;;;;;3.80;2.20;;;21.70;99.90;;;;;;5050986;28;20231;-84
2023/08/27 12:24:32;;;;;;;4.78;2.75;;;21.40;99.90;;;;;;5054804;28;20216;-83
2023/08/27 12:27:03;;;;;;;4.00;3.13;;;21.00;99.90;;;;;;5062221;28;20782;-83
2023/08/27 12:29:32;;;;;;;3.30;3.00;;;20.60;99.90;;;;;;5064835;28;20895;-83
2023/08/27 12:32:06;;;;;;;9.18;3.42;;;20.20;99.90;;;;;;5075781;28;20224;-83
2023/08/27 12:34:36;;;;;;;14.43;2.58;;;19.80;99.90;;;;;;5069360;28;20265;-87
2023/08/27 12:37:03;;;;;;;3.08;2.45;;;19.40;99.90;;;;;;5058733;28;20310;-85
2023/08/27 12:39:30;;;;;;;3.30;2.40;;;19.00;99.90;;;;;;5062040;28;20329;-83
2023/08/27 12:41:57;;;;;;;3.73;2.63;;;18.40;99.90;;;;;;5067877;28;20222;-84
2023/08/27 12:44:23;;;;;;;13.10;4.10;;;18.00;99.90;;;;;;5067244;28;20235;-84
2023/08/27 12:46:50;;;;;;;9.07;3.67;;;17.70;99.90;;;;;;5058973;28;20223;-86
2023/08/27 12:49:17;;;;;;;7.37;3.50;;;17.30;99.90;;;;;;5071119;28;20223;-84
2023/08/27 12:51:47;;;;;;;4.10;3.23;;;17.10;99.90;;;;;;5074857;28;20223;-84